Lanark, West Virginia
Current Conditions -  °F | °C
As of 7:51 PM on Tuesday 25 Nov 2014 (Local Time) from KBKW Reporting Station
Clear Clear  
Wind Chill: 39°   Ceiling: Unl
Heat Index: 39°   Visibility: 10mi
Dew Point: 24°   Wind: 3mph
Humidity: 55%   Direction: 130°SE
Pressure: 30.08"   Gusts: NA
Location:  37.83°N, 81.15°W
Report Text: KBKW 260051Z AUTO 13003KT 10SM CLR 04/M04 A3008 RMK AO2 SLP205 T00391044
Loading
Personal Weather Stations






























Interactive Weather Map New forecast layout! Learn more

10-Day Weather Forecast

Advertisements
Track Severe Weather on mobile